Hlavní strana
METAR-TAF:

METAR-TAF

Letiště :

Bermudy, Bermudy

zeměpisná šířka: 32-22N, zeměpisná délka: 064-41W, výška: 6 m

Aktuální stav počasí

Zpráva byla vytvořena před 29 minutami, v 03:55 UTC
Jihovýchodní vítr 13 kt
Teplota 21°C
Vlhkost vzduchu 83%
Tlak 1028 hPa
Viditelnost 10 km a více
Skoro jasno ve výšce 2900 ft

METAR: TXKF 210355Z 14013KT 9999 FEW029 21/18 Q1028

Čas: 01:24 (04:24 UTC)

Předpověď počasí

Zpráva byla vytvořena před 4 hodinami a 53 minutami, v 23:31 UTC
Předpověď platná od 21 v 00 UTC do 21 v 24 UTC
Jihojihovýchodní vítr 17 kt
Viditelnost 10 km a více
Skoro jasno ve výšce 3000 ft

TAF: TXKF 202331Z 2100/2124 15017KT 9999 FEW030

Stav a předpovědi počasí z více než 4 000 letišť (zprávy METAR a TAF).

Červené a žluté tečky na mapě představují dostupné meteorologické stanice.

Když kurzor umístíte na tečku, zobrazí se název stanice.

Pak kliknutím zobrazíte stav a předpověď počasí.

Chcete-li změnit mapu, kliknutím na zelené tlačítko se znaménkem +mapu přiblížíte, kliknutím na zelené tlačítko se znaménkem – mapu oddálíte a kliknutím na zelené šipky přejdete na sousední mapy.


METAR-TAF: